Time;durP1;ratioP1;P1;durP2;ratioP2;P2;SDS_P1;SDS_P2;PMS_P1;PMS_P2;Temp;Humidity;BMP_temperature;BMP_pressure;BME280_temperature;BME280_humidity;BME280_pressure;Samples;Min_cycle;Max_cycle;Signal;HPM_P1;HPM_P2
2021/03/11 00:01:14;;;;;;;53.00;23.13;;;-1.70;92.10;;;;;;4157298;28;20754;-63
2021/03/11 00:03:17;;;;;;;50.97;22.10;;;-1.80;92.50;;;;;;4158617;28;20267;-60
2021/03/11 00:05:19;;;;;;;54.57;22.67;;;-1.90;92.80;;;;;;4157535;28;20678;-62
2021/03/11 00:07:20;;;;;;;47.72;22.35;;;-1.90;93.00;;;;;;4157763;28;20291;-62
2021/03/11 00:09:22;;;;;;;50.87;22.83;;;-2.00;93.50;;;;;;4157108;28;20029;-62
2021/03/11 00:11:23;;;;;;;51.33;22.13;;;-2.00;93.90;;;;;;4158100;28;20274;-68
2021/03/11 00:13:24;;;;;;;52.53;22.88;;;-2.00;93.80;;;;;;4156816;28;20088;-62
2021/03/11 00:15:26;;;;;;;49.15;22.73;;;-2.10;93.70;;;;;;4157748;28;20115;-56
2021/03/11 00:17:27;;;;;;;54.43;21.83;;;-2.10;93.50;;;;;;4156136;28;20041;-62
2021/03/11 00:19:28;;;;;;;49.47;21.98;;;-2.10;93.60;;;;;;4157420;28;20258;-66
2021/03/11 00:21:29;;;;;;;50.72;23.52;;;-2.10;93.50;;;;;;4158079;28;20092;-64
2021/03/11 00:23:30;;;;;;;47.43;20.47;;;-2.10;93.70;;;;;;4157242;28;20033;-65
2021/03/11 00:25:34;;;;;;;45.75;22.55;;;-2.10;93.80;;;;;;4157892;28;20804;-62
2021/03/11 00:27:36;;;;;;;47.30;20.57;;;-2.10;93.90;;;;;;4156879;28;20017;-67
2021/03/11 00:29:37;;;;;;;50.97;22.48;;;-2.10;93.90;;;;;;4157787;28;20271;-62
2021/03/11 00:31:38;;;;;;;52.05;21.88;;;-2.10;93.90;;;;;;4156682;28;20501;-64
2021/03/11 00:33:40;;;;;;;49.67;22.63;;;-2.10;94.00;;;;;;4158265;28;20038;-58
2021/03/11 00:35:41;;;;;;;55.40;23.20;;;-2.20;94.00;;;;;;4153786;28;20045;-62
2021/03/11 00:37:43;;;;;;;54.55;23.23;;;-2.20;94.30;;;;;;4157341;28;20328;-64
2021/03/11 00:39:44;;;;;;;55.25;23.60;;;-2.20;94.40;;;;;;4156984;28;20071;-66
2021/03/11 00:41:45;;;;;;;54.33;22.47;;;-2.20;94.50;;;;;;4157625;28;20091;-62
2021/03/11 00:43:47;;;;;;;53.75;22.42;;;-2.30;94.80;;;;;;4156349;28;20275;-63
2021/03/11 00:45:49;;;;;;;45.83;21.25;;;-2.30;95.00;;;;;;4156950;28;20486;-63
2021/03/11 00:47:50;;;;;;;47.08;21.65;;;-2.30;95.10;;;;;;4156672;28;20079;-63
2021/03/11 00:49:51;;;;;;;61.20;27.60;;;-2.30;94.90;;;;;;4157057;28;20444;-62
2021/03/11 00:51:52;;;;;;;62.40;27.40;;;-2.40;94.90;;;;;;4156955;28;20026;-62
2021/03/11 00:53:54;;;;;;;53.53;24.08;;;-2.40;95.20;;;;;;4156782;28;20120;-62
2021/03/11 00:55:55;;;;;;;53.67;25.08;;;-2.40;95.60;;;;;;4157262;28;20038;-62
2021/03/11 00:57:56;;;;;;;55.47;23.63;;;-2.50;96.50;;;;;;4156126;28;20083;-62
2021/03/11 00:59:57;;;;;;;53.63;24.73;;;-2.60;97.00;;;;;;4157632;28;20041;-66
2021/03/11 01:01:58;;;;;;;56.20;25.27;;;-2.60;97.00;;;;;;4156033;28;20087;-64
2021/03/11 01:04:00;;;;;;;57.72;25.50;;;-2.60;97.40;;;;;;4156910;28;20098;-65
2021/03/11 01:06:01;;;;;;;58.35;24.13;;;-2.70;97.60;;;;;;4156433;28;20107;-62
2021/03/11 01:08:03;;;;;;;54.63;24.02;;;-2.70;97.80;;;;;;4157615;28;20091;-66
2021/03/11 01:10:05;;;;;;;49.25;22.17;;;-2.70;98.10;;;;;;4155662;28;20076;-63
2021/03/11 01:12:07;;;;;;;59.92;25.67;;;-2.70;97.90;;;;;;4156930;28;20762;-66
2021/03/11 01:14:08;;;;;;;51.78;23.63;;;-2.70;97.60;;;;;;4155874;28;20060;-59
2021/03/11 01:16:09;;;;;;;48.25;23.13;;;-2.70;97.70;;;;;;4157091;28;20079;-64
2021/03/11 01:18:12;;;;;;;53.08;23.45;;;-2.80;97.80;;;;;;4156310;28;20126;-67
2021/03/11 01:20:17;;;;;;;51.65;23.48;;;-2.90;98.00;;;;;;4156808;28;20425;-67
2021/03/11 01:22:18;;;;;;;50.55;22.08;;;-2.90;98.70;;;;;;4154888;28;20087;-65
2021/03/11 01:24:19;;;;;;;58.70;25.77;;;-3.00;99.30;;;;;;4156315;28;20042;-64
2021/03/11 01:26:20;;;;;;;58.75;26.60;;;-3.00;99.60;;;;;;4156857;28;20075;-65
2021/03/11 01:28:22;;;;;;;59.92;26.48;;;-3.10;99.80;;;;;;4155744;28;20041;-64
2021/03/11 01:30:23;;;;;;;55.95;25.48;;;-3.10;99.90;;;;;;4157096;28;20501;-63
2021/03/11 01:32:24;;;;;;;55.45;25.15;;;-3.20;99.90;;;;;;4155844;28;20420;-60
2021/03/11 01:34:25;;;;;;;68.15;29.50;;;-3.20;99.90;;;;;;4157464;28;20106;-66
2021/03/11 01:36:27;;;;;;;79.88;31.48;;;-3.20;99.90;;;;;;4154353;28;20103;-67
2021/03/11 01:38:28;;;;;;;62.00;27.25;;;-3.20;99.90;;;;;;4156234;28;20041;-63
2021/03/11 01:40:29;;;;;;;59.60;26.00;;;-3.30;99.90;;;;;;4155513;28;20033;-61
2021/03/11 01:42:30;;;;;;;59.08;26.48;;;-3.30;99.90;;;;;;4156974;28;20456;-63
2021/03/11 01:44:32;;;;;;;51.38;24.13;;;-3.30;99.90;;;;;;4155719;28;20469;-62
2021/03/11 01:46:34;;;;;;;56.53;24.30;;;-3.30;99.90;;;;;;4156774;28;20037;-65
2021/03/11 01:48:35;;;;;;;50.53;22.70;;;-3.40;99.90;;;;;;4155575;28;20152;-64
2021/03/11 01:50:37;;;;;;;57.22;22.35;;;-3.30;99.90;;;;;;4156470;28;20033;-64
2021/03/11 01:52:40;;;;;;;44.40;21.23;;;-3.30;99.90;;;;;;4155832;28;20421;-62
2021/03/11 01:54:42;;;;;;;42.05;20.27;;;-3.30;99.90;;;;;;4156094;28;20432;-68
2021/03/11 01:56:43;;;;;;;47.85;21.40;;;-3.40;99.90;;;;;;4155683;28;20080;-62
2021/03/11 01:58:45;;;;;;;48.83;21.58;;;-3.40;99.90;;;;;;4155502;28;20029;-68
2021/03/11 02:00:46;;;;;;;45.55;20.27;;;-3.40;99.90;;;;;;4156633;28;20502;-64
2021/03/11 02:02:47;;;;;;;44.45;19.70;;;-3.40;99.90;;;;;;4155459;28;20060;-68
2021/03/11 02:04:48;;;;;;;43.25;20.00;;;-3.50;99.90;;;;;;4156903;28;20091;-62
2021/03/11 02:06:50;;;;;;;49.58;19.58;;;-3.50;99.90;;;;;;4155195;28;20049;-66
2021/03/11 02:08:51;;;;;;;46.05;19.35;;;-3.50;99.90;;;;;;4156448;28;20033;-66
2021/03/11 02:10:52;;;;;;;46.55;20.70;;;-3.50;99.90;;;;;;4155135;28;20366;-62
2021/03/11 02:13:16;;;;;;;45.55;20.92;;;-3.50;99.90;;;;;;4156265;28;20079;-62
2021/03/11 02:15:26;;;;;;;45.08;20.17;;;-3.50;99.90;;;;;;4115848;28;20386;-64
2021/03/11 02:17:38;;;;;;;43.70;18.90;;;-3.50;99.90;;;;;;4156231;28;20037;-63
2021/03/11 02:19:39;;;;;;;46.80;19.55;;;-3.60;99.90;;;;;;4155245;28;20026;-68
2021/03/11 02:21:57;;;;;;;46.00;20.45;;;-3.70;99.90;;;;;;4156305;28;20111;-63
2021/03/11 02:24:25;;;;;;;47.42;20.17;;;-3.80;99.90;;;;;;4155177;28;20087;-65
2021/03/11 02:27:00;;;;;;;49.35;22.63;;;-3.90;99.90;;;;;;4155840;28;20078;-66
2021/03/11 02:29:27;;;;;;;48.15;21.27;;;-4.00;99.90;;;;;;4155391;28;20083;-63
2021/03/11 02:31:31;;;;;;;50.75;22.17;;;-4.10;99.90;;;;;;4155348;28;20179;-63
2021/03/11 02:33:35;;;;;;;55.55;22.67;;;-4.10;99.90;;;;;;4155915;28;20099;-68
2021/03/11 02:35:39;;;;;;;50.95;21.27;;;-4.20;99.90;;;;;;4156430;28;20049;-63
2021/03/11 02:37:44;;;;;;;47.50;20.42;;;-4.20;99.90;;;;;;4155150;28;20444;-63
2021/03/11 02:39:53;;;;;;;49.85;22.58;;;-4.20;99.90;;;;;;4156050;28;20107;-64
2021/03/11 02:41:57;;;;;;;55.75;25.42;;;-4.20;99.90;;;;;;4157437;28;20042;-66
2021/03/11 02:43:58;;;;;;;58.83;24.38;;;-4.20;99.90;;;;;;4159319;28;20048;-66
2021/03/11 02:46:00;;;;;;;50.22;22.15;;;-4.20;99.90;;;;;;4158234;28;20041;-68
2021/03/11 02:48:04;;;;;;;48.10;22.15;;;-4.20;99.90;;;;;;4158997;28;20121;-64
2021/03/11 02:50:07;;;;;;;47.92;22.33;;;-4.20;99.90;;;;;;4158259;28;20083;-66
2021/03/11 02:52:09;;;;;;;52.47;23.58;;;-4.20;99.90;;;;;;4159189;28;20732;-64
2021/03/11 02:54:11;;;;;;;54.70;23.80;;;-4.20;99.90;;;;;;4157712;28;20576;-65
2021/03/11 02:56:13;;;;;;;53.78;22.08;;;-4.20;99.90;;;;;;4159106;28;20084;-62
2021/03/11 02:58:14;;;;;;;50.25;21.75;;;-4.20;99.90;;;;;;4157735;28;20079;-62
2021/03/11 03:00:16;;;;;;;51.13;24.15;;;-4.20;99.90;;;;;;4159022;28;20053;-64
2021/03/11 03:02:17;;;;;;;51.75;23.58;;;-4.20;99.90;;;;;;4158402;28;20083;-64
2021/03/11 03:04:19;;;;;;;51.83;23.40;;;-4.20;99.90;;;;;;4159725;28;20088;-63
2021/03/11 03:06:21;;;;;;;46.65;21.02;;;-4.10;99.90;;;;;;4158374;28;20127;-67
2021/03/11 03:08:24;;;;;;;45.63;21.60;;;-4.10;99.90;;;;;;4158935;28;20022;-65
2021/03/11 03:10:28;;;;;;;48.13;20.90;;;-4.10;99.90;;;;;;4158482;28;20336;-67
2021/03/11 03:12:30;;;;;;;45.45;20.60;;;-4.10;99.90;;;;;;4156526;28;20424;-69
2021/03/11 03:14:31;;;;;;;49.38;20.45;;;-4.10;99.90;;;;;;4158489;28;20033;-62
2021/03/11 03:16:33;;;;;;;52.55;21.40;;;-4.20;99.90;;;;;;4157862;28;20053;-67
2021/03/11 03:18:35;;;;;;;55.88;22.33;;;-4.20;99.90;;;;;;4158309;28;20546;-65
2021/03/11 03:20:37;;;;;;;46.13;20.30;;;-4.30;99.90;;;;;;4157927;28;20746;-66
2021/03/11 03:22:39;;;;;;;53.05;22.40;;;-4.30;99.90;;;;;;4158728;28;20033;-65
2021/03/11 03:24:43;;;;;;;53.42;21.10;;;-4.40;99.90;;;;;;4157868;28;20079;-66
2021/03/11 03:26:44;;;;;;;45.47;20.77;;;-4.40;99.90;;;;;;4158407;28;20037;-62
2021/03/11 03:28:45;;;;;;;47.42;19.48;;;-4.60;99.90;;;;;;4157388;28;20495;-67
2021/03/11 03:30:46;;;;;;;53.10;21.95;;;-4.60;99.90;;;;;;4159018;28;20436;-64
2021/03/11 03:32:48;;;;;;;57.38;21.38;;;-4.60;99.90;;;;;;4157271;28;20038;-61
2021/03/11 03:34:49;;;;;;;54.78;21.00;;;-4.70;99.90;;;;;;4159219;28;20486;-66
2021/03/11 03:36:50;;;;;;;48.45;21.23;;;-4.70;99.90;;;;;;4157591;28;20131;-68
2021/03/11 03:38:54;;;;;;;51.35;19.48;;;-4.80;99.90;;;;;;4158601;28;20091;-68
2021/03/11 03:41:01;;;;;;;44.83;19.83;;;-4.80;99.90;;;;;;4157508;28;20025;-62
2021/03/11 03:43:25;;;;;;;48.70;21.85;;;-4.90;99.90;;;;;;4158225;28;20524;-65
2021/03/11 03:45:29;;;;;;;54.42;20.27;;;-4.90;99.90;;;;;;4157691;28;20091;-63
2021/03/11 03:47:31;;;;;;;49.83;20.73;;;-4.80;99.90;;;;;;4140615;28;20033;-64
2021/03/11 03:49:34;;;;;;;46.10;19.88;;;-4.90;99.90;;;;;;4157425;28;20401;-64
2021/03/11 03:51:37;;;;;;;50.78;21.60;;;-4.90;99.90;;;;;;4158191;28;20029;-67
2021/03/11 03:53:52;;;;;;;51.53;21.33;;;-4.90;99.90;;;;;;4157688;28;20436;-64
2021/03/11 03:55:58;;;;;;;56.30;21.27;;;-4.90;99.90;;;;;;4157051;28;20045;-66
2021/03/11 03:58:00;;;;;;;45.50;20.98;;;-4.80;99.90;;;;;;4156774;28;20045;-67
2021/03/11 04:00:01;;;;;;;51.88;21.10;;;-4.80;99.90;;;;;;4157091;28;20764;-67
2021/03/11 04:02:05;;;;;;;48.03;20.88;;;-4.90;99.90;;;;;;4157697;28;20026;-63
2021/03/11 04:04:08;;;;;;;52.70;21.95;;;-4.90;99.90;;;;;;4157351;28;20359;-66
2021/03/11 04:06:11;;;;;;;43.50;18.77;;;-4.90;99.90;;;;;;4158260;28;20064;-66
2021/03/11 04:08:13;;;;;;;46.75;19.70;;;-5.00;99.90;;;;;;4156799;28;20033;-62
2021/03/11 04:10:14;;;;;;;47.97;19.58;;;-5.00;99.90;;;;;;4158348;28;20076;-61
2021/03/11 04:12:17;;;;;;;48.10;19.08;;;-5.00;99.90;;;;;;4156416;28;20127;-62
2021/03/11 04:14:19;;;;;;;44.47;19.83;;;-5.00;99.90;;;;;;4157169;28;20038;-64
2021/03/11 04:16:22;;;;;;;49.20;20.17;;;-5.00;99.90;;;;;;4156759;28;21037;-66
2021/03/11 04:18:24;;;;;;;43.88;18.83;;;-5.10;99.90;;;;;;4157301;28;20030;-64
2021/03/11 04:20:26;;;;;;;50.00;19.58;;;-5.10;99.90;;;;;;4157094;28;20547;-64
2021/03/11 04:22:28;;;;;;;56.83;22.73;;;-5.20;99.90;;;;;;4155399;28;20067;-61
2021/03/11 04:24:31;;;;;;;53.83;21.33;;;-5.20;99.90;;;;;;4156249;28;20115;-65
2021/03/11 04:26:34;;;;;;;52.85;21.85;;;-5.20;99.90;;;;;;4157833;28;20748;-63
2021/03/11 04:28:36;;;;;;;54.58;22.13;;;-5.30;99.90;;;;;;4156394;28;20452;-65
2021/03/11 04:30:38;;;;;;;52.92;22.70;;;-5.30;99.90;;;;;;4157262;28;20033;-62
2021/03/11 04:32:39;;;;;;;52.33;22.45;;;-5.20;99.90;;;;;;4156753;28;20045;-63
2021/03/11 04:34:41;;;;;;;57.50;24.38;;;-5.30;99.90;;;;;;4156888;28;20443;-65
2021/03/11 04:36:42;;;;;;;55.10;22.67;;;-5.30;99.90;;;;;;4157217;28;20050;-63
2021/03/11 04:38:43;;;;;;;55.35;23.35;;;-5.20;99.90;;;;;;4156870;28;20025;-67
2021/03/11 04:40:45;;;;;;;53.45;22.08;;;-5.20;99.90;;;;;;4157853;28;20030;-67
2021/03/11 04:42:47;;;;;;;45.75;21.17;;;-5.20;99.90;;;;;;4156544;28;20067;-63
2021/03/11 04:44:49;;;;;;;51.42;20.38;;;-5.10;99.90;;;;;;4156505;28;20045;-62
2021/03/11 04:46:52;;;;;;;54.30;21.83;;;-5.10;99.90;;;;;;4156177;28;20080;-66
2021/03/11 04:48:53;;;;;;;54.30;22.65;;;-5.10;99.90;;;;;;4157576;28;20029;-60
2021/03/11 04:50:55;;;;;;;53.20;22.70;;;-5.10;99.90;;;;;;4155770;28;20045;-62
2021/03/11 04:52:58;;;;;;;56.25;21.52;;;-5.10;99.90;;;;;;4157484;28;20045;-68
2021/03/11 04:55:01;;;;;;;51.97;20.75;;;-5.10;99.90;;;;;;4155845;28;20040;-64
2021/03/11 04:57:02;;;;;;;51.92;19.63;;;-5.10;99.90;;;;;;4155509;28;20057;-67
2021/03/11 04:59:04;;;;;;;48.22;20.77;;;-5.20;99.90;;;;;;4156022;28;20486;-62
2021/03/11 05:01:10;;;;;;;45.13;19.50;;;-5.30;99.90;;;;;;4156150;28;20080;-66
2021/03/11 05:03:13;;;;;;;47.30;19.08;;;-5.30;99.90;;;;;;4155341;28;20041;-62
2021/03/11 05:05:35;;;;;;;44.13;19.95;;;-5.20;99.90;;;;;;4157525;28;20115;-68
2021/03/11 05:07:37;;;;;;;56.05;21.25;;;-5.10;99.90;;;;;;4155994;28;20084;-65
2021/03/11 05:09:38;;;;;;;60.28;23.90;;;-4.90;99.90;;;;;;4156930;28;20041;-63
2021/03/11 05:11:40;;;;;;;57.97;23.80;;;-4.70;99.90;;;;;;4156017;28;20033;-65
2021/03/11 05:13:42;;;;;;;60.40;21.65;;;-4.40;99.90;;;;;;4156291;28;20095;-69
2021/03/11 05:15:43;;;;;;;51.88;21.80;;;-4.20;99.90;;;;;;4155766;28;20091;-59
2021/03/11 05:17:44;;;;;;;50.28;21.98;;;-3.90;99.90;;;;;;4154944;28;20075;-66
2021/03/11 05:19:45;;;;;;;55.90;21.33;;;-3.60;99.90;;;;;;4156709;28;20083;-62
2021/03/11 05:21:46;;;;;;;60.42;22.90;;;-3.20;99.90;;;;;;4155931;28;20034;-64
2021/03/11 05:23:48;;;;;;;55.92;20.98;;;-2.90;99.90;;;;;;4156143;28;20046;-61
2021/03/11 05:25:52;;;;;;;50.30;21.27;;;-2.60;99.90;;;;;;4154813;28;20107;-58
2021/03/11 05:27:53;;;;;;;55.03;22.30;;;-2.20;99.90;;;;;;4154979;28;20451;-61
2021/03/11 05:29:54;;;;;;;47.88;23.02;;;-1.90;99.90;;;;;;4154934;28;20532;-61
2021/03/11 05:31:55;;;;;;;59.40;21.38;;;-1.70;99.90;;;;;;4156679;28;20072;-63
2021/03/11 05:33:57;;;;;;;47.33;21.50;;;-1.30;99.90;;;;;;4155323;28;20560;-63
2021/03/11 05:35:58;;;;;;;50.53;22.25;;;-1.00;99.90;;;;;;4156196;28;20104;-64
2021/03/11 05:38:00;;;;;;;50.30;22.80;;;-0.90;99.60;;;;;;4154971;28;20041;-65
2021/03/11 05:40:06;;;;;;;43.97;20.40;;;-0.70;99.30;;;;;;4156367;28;20267;-61
2021/03/11 05:42:11;;;;;;;48.37;21.40;;;-0.50;99.10;;;;;;4155153;28;20274;-62
2021/03/11 05:44:13;;;;;;;53.27;22.07;;;-0.20;98.70;;;;;;4155827;28;20733;-61
2021/03/11 05:46:15;;;;;;;52.73;23.07;;;0.00;98.60;;;;;;4155071;28;20282;-61
2021/03/11 05:48:17;;;;;;;52.40;23.50;;;0.20;98.40;;;;;;4155815;28;20316;-61
2021/03/11 05:50:19;;;;;;;61.20;24.73;;;0.30;98.00;;;;;;4154811;28;20263;-61
2021/03/11 05:52:20;;;;;;;48.27;24.27;;;0.80;97.80;;;;;;4154863;28;20275;-60
2021/03/11 05:54:21;;;;;;;56.30;24.73;;;1.00;96.50;;;;;;4156201;28;20278;-61
2021/03/11 05:56:22;;;;;;;52.47;24.77;;;1.10;96.00;;;;;;4155122;28;20286;-61
2021/03/11 05:58:24;;;;;;;50.97;24.17;;;1.40;95.60;;;;;;4155381;28;20348;-61
2021/03/11 06:00:25;;;;;;;50.03;23.43;;;1.70;94.50;;;;;;4155381;28;20320;-61
2021/03/11 06:02:27;;;;;;;51.23;21.27;;;1.90;92.90;;;;;;4156411;28;20271;-63
2021/03/11 06:04:28;;;;;;;49.70;22.90;;;2.20;93.10;;;;;;4155100;28;20263;-64
2021/03/11 06:06:33;;;;;;;48.73;22.73;;;2.60;92.00;;;;;;4157659;28;20287;-61
2021/03/11 06:08:35;;;;;;;54.20;21.40;;;2.90;90.80;;;;;;4155072;28;20768;-61
2021/03/11 06:10:38;;;;;;;49.97;22.03;;;3.30;90.30;;;;;;4155989;28;20267;-62
2021/03/11 06:12:41;;;;;;;43.63;21.57;;;3.60;88.20;;;;;;4154550;28;20309;-65
2021/03/11 06:14:49;;;;;;;43.63;20.57;;;4.00;86.20;;;;;;4154632;28;20259;-64
2021/03/11 06:16:57;;;;;;;49.43;23.07;;;4.30;83.20;;;;;;4154254;28;20315;-61
2021/03/11 06:18:58;;;;;;;53.13;23.30;;;4.60;82.60;;;;;;4155000;28;20368;-61
2021/03/11 06:21:01;;;;;;;50.57;23.73;;;4.60;78.70;;;;;;4155621;28;20317;-60
2021/03/11 06:23:02;;;;;;;55.40;25.17;;;4.80;77.70;;;;;;4155885;28;20751;-60
2021/03/11 06:25:07;;;;;;;55.27;25.53;;;4.90;77.10;;;;;;4137313;28;20314;-60
2021/03/11 06:27:08;;;;;;;66.87;29.83;;;4.90;75.30;;;;;;4154448;28;20682;-65
2021/03/11 06:29:09;;;;;;;54.70;26.33;;;5.30;74.00;;;;;;4155145;28;20742;-62
2021/03/11 06:31:19;;;;;;;89.27;42.87;;;5.40;73.70;;;;;;4154701;28;20329;-61
2021/03/11 06:33:29;;;;;;;75.83;34.97;;;5.60;70.90;;;;;;4155438;28;20270;-63
2021/03/11 06:35:31;;;;;;;78.28;37.10;;;5.70;69.00;;;;;;4154722;28;21143;-65
2021/03/11 06:37:41;;;;;;;61.73;30.47;;;5.80;69.10;;;;;;4156183;28;20041;-67
2021/03/11 06:39:44;;;;;;;50.47;23.65;;;5.80;68.30;;;;;;4155293;28;20263;-65
2021/03/11 06:41:45;;;;;;;53.07;26.30;;;5.80;68.20;;;;;;4154726;28;20087;-62
2021/03/11 06:43:58;;;;;;;51.83;26.20;;;5.90;67.40;;;;;;4154580;28;20818;-62
2021/03/11 06:46:08;;;;;;;65.83;31.80;;;6.10;66.60;;;;;;4156091;28;20321;-66
2021/03/11 06:48:19;;;;;;;76.70;36.25;;;6.10;66.00;;;;;;4154544;28;20317;-66
2021/03/11 06:50:30;;;;;;;74.03;33.25;;;6.10;64.80;;;;;;4155643;28;20037;-67
2021/03/11 06:52:31;;;;;;;68.07;31.47;;;6.40;65.40;;;;;;4154459;28;20935;-65
2021/03/11 06:55:07;;;;;;;89.33;39.77;;;6.90;64.00;;;;;;4155945;28;20735;-62
2021/03/11 06:57:08;;;;;;;121.80;48.73;;;7.30;61.10;;;;;;4154561;28;21224;-65
2021/03/11 06:59:09;;;;;;;64.10;30.40;;;7.60;61.70;;;;;;4154705;28;20316;-63
2021/03/11 07:01:10;;;;;;;43.87;21.83;;;7.80;61.20;;;;;;4154344;28;20289;-67
2021/03/11 07:03:11;;;;;;;35.73;18.03;;;8.00;60.50;;;;;;4154706;28;20635;-64
2021/03/11 07:05:13;;;;;;;26.03;14.60;;;8.00;60.00;;;;;;4155136;28;20345;-65
2021/03/11 07:07:22;;;;;;;27.97;15.80;;;7.50;59.30;;;;;;4155710;28;20279;-62
2021/03/11 07:09:39;;;;;;;30.40;16.10;;;7.20;59.50;;;;;;4153396;28;20271;-65
2021/03/11 07:11:54;;;;;;;26.83;13.73;;;7.10;58.40;;;;;;4154733;28;20283;-66
2021/03/11 07:13:57;;;;;;;27.57;14.63;;;7.30;58.90;;;;;;4154159;28;20605;-60
2021/03/11 07:16:00;;;;;;;29.37;14.43;;;7.60;59.00;;;;;;4155646;28;20089;-63
2021/03/11 07:18:05;;;;;;;35.73;15.43;;;7.50;58.50;;;;;;4154214;28;20486;-61
2021/03/11 07:20:12;;;;;;;34.67;18.47;;;7.70;59.10;;;;;;4155183;28;20428;-60
2021/03/11 07:22:16;;;;;;;26.97;14.07;;;7.80;58.00;;;;;;4154472;28;20566;-64
2021/03/11 07:24:35;;;;;;;23.90;13.27;;;7.90;57.30;;;;;;4154590;28;20053;-65
2021/03/11 07:26:36;;;;;;;27.07;14.10;;;7.60;56.80;;;;;;4154894;28;20095;-65
2021/03/11 07:28:37;;;;;;;51.60;25.10;;;7.40;58.00;;;;;;4158609;28;20037;-64
2021/03/11 07:31:08;;;;;;;38.03;18.90;;;7.50;58.00;;;;;;4157027;28;20029;-61
2021/03/11 07:33:09;;;;;;;29.98;14.35;;;7.90;56.10;;;;;;4145398;28;20038;-61
2021/03/11 07:35:16;;;;;;;29.83;14.70;;;7.90;55.80;;;;;;4157818;28;20095;-59
2021/03/11 07:37:18;;;;;;;35.27;15.43;;;7.60;57.20;;;;;;4158284;28;20098;-65
2021/03/11 07:39:20;;;;;;;31.20;16.50;;;7.60;57.20;;;;;;4157248;28;20099;-65
2021/03/11 07:41:22;;;;;;;43.50;22.87;;;7.60;56.60;;;;;;4157836;28;20041;-59
2021/03/11 07:43:25;;;;;;;36.10;19.67;;;7.80;56.60;;;;;;4148837;28;20512;-59
2021/03/11 07:45:26;;;;;;;26.27;14.20;;;7.60;56.40;;;;;;4156969;28;20041;-64
2021/03/11 07:47:28;;;;;;;28.73;12.80;;;7.50;56.30;;;;;;4155279;28;20428;-61
2021/03/11 07:49:29;;;;;;;22.00;13.40;;;7.60;56.30;;;;;;4157456;28;20132;-66
2021/03/11 07:51:32;;;;;;;25.90;12.43;;;7.60;55.50;;;;;;4156260;28;20037;-63
2021/03/11 07:53:33;;;;;;;28.27;13.23;;;7.40;56.00;;;;;;4156673;28;20557;-61
2021/03/11 07:55:35;;;;;;;26.63;12.67;;;7.30;56.10;;;;;;4157344;28;20029;-63
2021/03/11 07:57:39;;;;;;;26.13;13.13;;;7.20;56.00;;;;;;4157273;28;20506;-66
2021/03/11 07:59:44;;;;;;;29.33;15.30;;;7.20;55.90;;;;;;4153301;28;20473;-65
2021/03/11 08:01:55;;;;;;;27.30;13.93;;;6.80;56.10;;;;;;4154135;28;20022;-66
2021/03/11 08:03:57;;;;;;;30.53;15.70;;;6.90;56.50;;;;;;4157155;28;21046;-62
2021/03/11 08:06:29;;;;;;;32.90;15.63;;;7.10;56.10;;;;;;4157386;28;20029;-64
2021/03/11 08:08:41;;;;;;;34.60;14.40;;;7.50;55.10;;;;;;4152557;28;20037;-61
2021/03/11 08:10:59;;;;;;;28.60;13.40;;;7.00;54.70;;;;;;4154705;28;20088;-65
2021/03/11 08:13:24;;;;;;;23.20;13.07;;;6.10;54.90;;;;;;4157313;28;20267;-64
2021/03/11 08:15:25;;;;;;;33.97;14.77;;;5.50;55.60;;;;;;4154434;28;20041;-61
2021/03/11 08:17:40;;;;;;;27.47;13.33;;;5.20;57.10;;;;;;4157112;28;20295;-62
2021/03/11 08:19:41;;;;;;;25.10;12.83;;;5.10;57.50;;;;;;4156637;28;20274;-61
2021/03/11 08:21:43;;;;;;;26.37;13.33;;;5.50;57.70;;;;;;4156743;28;20267;-67
2021/03/11 08:23:45;;;;;;;27.77;14.10;;;6.00;56.90;;;;;;4155731;28;20263;-67
2021/03/11 08:25:46;;;;;;;35.87;15.23;;;6.30;56.20;;;;;;4149886;28;20283;-62
2021/03/11 08:27:47;;;;;;;31.50;15.20;;;6.30;56.30;;;;;;4156158;28;20348;-59
2021/03/11 08:29:49;;;;;;;35.57;16.20;;;6.30;56.60;;;;;;4156515;28;20275;-67
2021/03/11 08:31:50;;;;;;;35.87;15.73;;;6.10;56.80;;;;;;4152105;28;20331;-68
2021/03/11 08:33:51;;;;;;;31.27;14.77;;;5.70;57.50;;;;;;4157899;28;20315;-60
2021/03/11 08:35:55;;;;;;;30.67;14.80;;;5.20;58.10;;;;;;4155900;28;20255;-65
2021/03/11 08:37:57;;;;;;;36.83;15.93;;;5.10;58.50;;;;;;4157126;28;20302;-64
2021/03/11 08:39:58;;;;;;;26.40;13.53;;;5.20;58.60;;;;;;4155946;28;20775;-65
2021/03/11 08:41:59;;;;;;;31.40;14.03;;;5.50;58.00;;;;;;4157079;28;20286;-57
2021/03/11 08:44:01;;;;;;;30.43;13.90;;;5.30;57.30;;;;;;4156366;28;20673;-64
2021/03/11 08:46:09;;;;;;;31.67;15.13;;;5.10;58.00;;;;;;4155749;28;20670;-62
2021/03/11 08:48:17;;;;;;;32.40;13.93;;;4.90;58.00;;;;;;4156555;28;20275;-60
2021/03/11 08:50:34;;;;;;;36.30;14.87;;;4.90;58.20;;;;;;4157034;28;20297;-65
2021/03/11 08:52:40;;;;;;;33.67;14.70;;;4.90;58.10;;;;;;4150530;28;20348;-62
2021/03/11 08:54:41;;;;;;;26.00;12.63;;;5.00;58.20;;;;;;4156571;28;20279;-69
2021/03/11 08:56:43;;;;;;;27.10;13.90;;;5.10;57.40;;;;;;4156715;28;20251;-67
2021/03/11 08:58:55;;;;;;;25.10;13.27;;;5.20;57.20;;;;;;4147643;28;20267;-66
2021/03/11 09:01:01;;;;;;;25.90;12.27;;;5.20;56.50;;;;;;4147026;28;20364;-64
2021/03/11 09:03:37;;;;;;;27.53;12.63;;;5.10;56.70;;;;;;4156789;28;20274;-66
2021/03/11 09:05:48;;;;;;;27.20;12.97;;;5.40;56.60;;;;;;4156309;28;20293;-66
2021/03/11 09:08:11;;;;;;;25.25;12.23;;;5.50;56.30;;;;;;4146465;28;20264;-54
2021/03/11 09:10:17;;;;;;;29.23;13.47;;;5.60;55.70;;;;;;4143663;28;20014;-66
2021/03/11 09:12:35;;;;;;;20.83;10.87;;;5.40;55.70;;;;;;4156985;28;21239;-62
2021/03/11 09:14:37;;;;;;;24.03;14.10;;;5.30;55.80;;;;;;4155392;28;20259;-67
2021/03/11 09:16:39;;;;;;;25.50;13.17;;;5.00;56.40;;;;;;4153698;28;20341;-65
2021/03/11 09:18:40;;;;;;;28.73;13.63;;;4.80;56.70;;;;;;4155346;28;20255;-61
2021/03/11 09:20:41;;;;;;;20.90;11.40;;;4.70;57.20;;;;;;4156090;28;20286;-66
2021/03/11 09:22:51;;;;;;;25.63;12.10;;;4.80;57.10;;;;;;4155234;28;20282;-64
2021/03/11 09:25:02;;;;;;;27.07;11.90;;;5.00;55.90;;;;;;4156261;28;20328;-66
2021/03/11 09:27:05;;;;;;;22.37;10.33;;;5.00;55.70;;;;;;4139546;28;20271;-66
2021/03/11 09:29:06;;;;;;;19.10;10.23;;;5.20;55.10;;;;;;4156339;28;20360;-65
2021/03/11 09:31:07;;;;;;;19.53;9.90;;;5.30;54.40;;;;;;4155666;28;20286;-68
2021/03/11 09:33:08;;;;;;;18.63;10.73;;;5.40;54.30;;;;;;4156004;28;20263;-68
2021/03/11 09:35:12;;;;;;;20.93;10.13;;;5.40;53.60;;;;;;4156910;28;20813;-63
2021/03/11 09:37:13;;;;;;;19.07;9.80;;;5.60;53.60;;;;;;4155429;28;21223;-65
2021/03/11 09:39:14;;;;;;;22.83;10.30;;;5.70;53.00;;;;;;4156235;28;20271;-65
2021/03/11 09:41:26;;;;;;;21.77;9.57;;;5.80;53.00;;;;;;4154109;28;20271;-70
2021/03/11 09:43:28;;;;;;;16.57;8.70;;;5.90;52.70;;;;;;4156321;28;20297;-66
2021/03/11 09:45:35;;;;;;;15.83;8.67;;;6.20;52.40;;;;;;4155090;28;20328;-63
2021/03/11 09:47:36;;;;;;;20.53;8.63;;;6.40;51.90;;;;;;4157016;28;20274;-67
2021/03/11 09:49:37;;;;;;;16.63;8.90;;;6.60;51.10;;;;;;4155677;28;20263;-66
2021/03/11 09:51:38;;;;;;;21.07;9.70;;;6.70;51.40;;;;;;4139310;28;20298;-63
2021/03/11 09:53:59;;;;;;;20.00;9.90;;;6.80;51.50;;;;;;4155458;28;20293;-67
2021/03/11 09:56:00;;;;;;;20.88;10.25;;;6.60;50.00;;;;;;4156618;28;20271;-67
2021/03/11 09:58:02;;;;;;;18.40;9.80;;;6.30;50.00;;;;;;4155264;28;20045;-62
2021/03/11 10:00:05;;;;;;;21.37;10.27;;;5.90;50.50;;;;;;4138961;28;20719;-65
2021/03/11 10:02:10;;;;;;;25.07;10.00;;;6.10;50.90;;;;;;4155283;28;20337;-60
2021/03/11 10:04:28;;;;;;;17.40;8.20;;;6.40;51.00;;;;;;4156726;28;20279;-66
2021/03/11 10:06:29;;;;;;;17.50;9.17;;;6.70;50.40;;;;;;4155489;28;20356;-67
2021/03/11 10:08:41;;;;;;;19.07;10.47;;;7.00;50.20;;;;;;4156039;28;20271;-64
2021/03/11 10:11:00;;;;;;;22.80;9.37;;;7.00;49.60;;;;;;4154602;28;20274;-62
2021/03/11 10:13:01;;;;;;;21.13;9.93;;;7.10;49.60;;;;;;4156268;28;20328;-60
2021/03/11 10:15:10;;;;;;;23.40;9.77;;;7.00;49.40;;;;;;4154565;28;20329;-66
2021/03/11 10:17:18;;;;;;;23.10;10.57;;;6.60;49.20;;;;;;4156204;28;20332;-62
2021/03/11 10:19:21;;;;;;;17.47;9.20;;;6.40;49.70;;;;;;4154567;28;21168;-62
2021/03/11 10:21:22;;;;;;;17.97;10.03;;;6.20;50.30;;;;;;4155504;28;20317;-61
2021/03/11 10:23:23;;;;;;;16.43;8.83;;;6.10;50.30;;;;;;4154528;28;20838;-64
2021/03/11 10:25:24;;;;;;;20.47;10.20;;;5.90;50.00;;;;;;4138614;28;20291;-67
2021/03/11 10:27:33;;;;;;;20.60;9.77;;;6.00;50.00;;;;;;4155311;28;20263;-64
2021/03/11 10:29:34;;;;;;;18.93;8.33;;;6.00;49.50;;;;;;4155785;28;20333;-66
2021/03/11 10:31:35;;;;;;;16.27;8.87;;;6.20;49.80;;;;;;4148518;28;20317;-63
2021/03/11 10:33:38;;;;;;;15.30;8.67;;;6.30;49.70;;;;;;4145297;28;20267;-71
2021/03/11 10:35:40;;;;;;;16.20;9.30;;;6.50;49.30;;;;;;4154396;28;20302;-71